sensor_id;sensor_type;location;lat;lon;timestamp;pressure;altitude;pressure_sealevel;temperature;humidity
43071;BME280;36278;47.952;21.714;2023-02-15T00:00:53;102070.06;;;3.39;90.82
43071;BME280;36278;47.952;21.714;2023-02-15T00:03:21;102045.03;;;3.23;90.44
43071;BME280;36278;47.952;21.714;2023-02-15T00:05:47;102059.75;;;3.30;90.57
43071;BME280;36278;47.952;21.714;2023-02-15T00:08:12;102062.31;;;3.33;90.85
43071;BME280;36278;47.952;21.714;2023-02-15T00:10:38;102064.13;;;3.29;90.61
43071;BME280;36278;47.952;21.714;2023-02-15T00:13:03;102069.44;;;3.25;91.49
43071;BME280;36278;47.952;21.714;2023-02-15T00:15:29;102054.63;;;3.24;91.53
43071;BME280;36278;47.952;21.714;2023-02-15T00:17:54;102060.81;;;3.20;91.84
43071;BME280;36278;47.952;21.714;2023-02-15T00:20:21;102058.22;;;3.18;92.07
43071;BME280;36278;47.952;21.714;2023-02-15T00:22:47;102058.25;;;3.15;91.96
43071;BME280;36278;47.952;21.714;2023-02-15T00:25:12;102047.75;;;3.18;92.26
43071;BME280;36278;47.952;21.714;2023-02-15T00:27:38;102047.75;;;3.18;92.20
43071;BME280;36278;47.952;21.714;2023-02-15T00:30:04;102036.59;;;3.07;91.92
43071;BME280;36278;47.952;21.714;2023-02-15T00:32:31;102049.56;;;3.13;91.91
43071;BME280;36278;47.952;21.714;2023-02-15T00:34:56;102045.25;;;3.11;92.14
43071;BME280;36278;47.952;21.714;2023-02-15T00:37:22;102040.81;;;3.14;91.61
43071;BME280;36278;47.952;21.714;2023-02-15T00:39:47;102028.66;;;3.12;91.48
43071;BME280;36278;47.952;21.714;2023-02-15T00:42:13;102033.81;;;3.16;91.63
43071;BME280;36278;47.952;21.714;2023-02-15T00:44:38;102030.28;;;3.19;91.53
43071;BME280;36278;47.952;21.714;2023-02-15T00:47:04;102023.22;;;3.22;91.68
43071;BME280;36278;47.952;21.714;2023-02-15T00:49:29;102024.09;;;3.23;91.27
43071;BME280;36278;47.952;21.714;2023-02-15T00:51:54;102027.53;;;3.26;91.36
43071;BME280;36278;47.952;21.714;2023-02-15T00:54:20;102020.56;;;3.24;90.30
43071;BME280;36278;47.952;21.714;2023-02-15T00:56:45;102016.19;;;3.24;91.13
43071;BME280;36278;47.952;21.714;2023-02-15T00:59:11;102012.78;;;3.21;91.00
43071;BME280;36278;47.952;21.714;2023-02-15T01:01:36;102015.44;;;3.19;91.06
43071;BME280;36278;47.952;21.714;2023-02-15T01:04:02;102018.88;;;3.21;91.02
43071;BME280;36278;47.952;21.714;2023-02-15T01:06:27;102016.03;;;3.33;90.61
43071;BME280;36278;47.952;21.714;2023-02-15T01:08:53;101997.00;;;3.24;90.71
43071;BME280;36278;47.952;21.714;2023-02-15T01:11:21;102005.72;;;3.26;89.98
43071;BME280;36278;47.952;21.714;2023-02-15T01:13:57;102007.44;;;3.25;90.45
43071;BME280;36278;47.952;21.714;2023-02-15T01:16:25;101998.56;;;3.35;89.56
43071;BME280;36278;47.952;21.714;2023-02-15T01:18:51;102010.81;;;3.32;89.72
43071;BME280;36278;47.952;21.714;2023-02-15T01:21:19;102007.41;;;3.28;90.46
43071;BME280;36278;47.952;21.714;2023-02-15T01:23:45;102005.69;;;3.27;89.88
43071;BME280;36278;47.952;21.714;2023-02-15T01:26:11;101997.72;;;3.32;89.54
43071;BME280;36278;47.952;21.714;2023-02-15T01:28:37;101999.44;;;3.33;89.92
43071;BME280;36278;47.952;21.714;2023-02-15T01:31:14;101994.22;;;3.33;88.98
43071;BME280;36278;47.952;21.714;2023-02-15T01:33:40;101992.63;;;3.24;90.53
43071;BME280;36278;47.952;21.714;2023-02-15T01:36:06;101997.75;;;3.30;90.09
43071;BME280;36278;47.952;21.714;2023-02-15T01:38:32;101985.56;;;3.29;89.04
43071;BME280;36278;47.952;21.714;2023-02-15T01:40:58;101995.94;;;3.35;90.01
43071;BME280;36278;47.952;21.714;2023-02-15T01:43:47;101993.41;;;3.29;90.02
43071;BME280;36278;47.952;21.714;2023-02-15T01:46:15;101989.00;;;3.31;89.83
43071;BME280;36278;47.952;21.714;2023-02-15T01:48:47;101984.78;;;3.24;90.08
43071;BME280;36278;47.952;21.714;2023-02-15T01:51:14;101990.91;;;3.23;90.08
43071;BME280;36278;47.952;21.714;2023-02-15T01:53:45;101992.69;;;3.21;90.36
43071;BME280;36278;47.952;21.714;2023-02-15T01:56:19;101979.69;;;3.17;90.19
43071;BME280;36278;47.952;21.714;2023-02-15T01:58:46;101982.44;;;3.11;90.36
43071;BME280;36278;47.952;21.714;2023-02-15T02:01:12;101965.06;;;3.05;91.08
43071;BME280;36278;47.952;21.714;2023-02-15T02:06:14;101986.78;;;3.12;90.50
43071;BME280;36278;47.952;21.714;2023-02-15T02:08:40;101986.78;;;3.12;90.40
43071;BME280;36278;47.952;21.714;2023-02-15T02:11:13;101980.75;;;3.06;90.88
43071;BME280;36278;47.952;21.714;2023-02-15T02:13:40;101983.34;;;3.06;90.48
43071;BME280;36278;47.952;21.714;2023-02-15T02:16:16;101979.16;;;2.98;91.59
43071;BME280;36278;47.952;21.714;2023-02-15T02:23:46;101975.75;;;2.94;91.60
43071;BME280;36278;47.952;21.714;2023-02-15T02:31:54;101974.25;;;2.79;92.50
43071;BME280;36278;47.952;21.714;2023-02-15T02:34:51;101976.75;;;2.84;92.79
43071;BME280;36278;47.952;21.714;2023-02-15T02:37:27;101983.63;;;2.91;92.02
43071;BME280;36278;47.952;21.714;2023-02-15T02:40:10;101980.13;;;2.92;91.85
43071;BME280;36278;47.952;21.714;2023-02-15T02:42:44;101981.13;;;2.85;92.84
43071;BME280;36278;47.952;21.714;2023-02-15T02:45:25;101973.31;;;2.82;92.95
43071;BME280;36278;47.952;21.714;2023-02-15T02:48:08;101963.88;;;2.73;92.89
43071;BME280;36278;47.952;21.714;2023-02-15T02:50:39;101969.94;;;2.75;92.79
43071;BME280;36278;47.952;21.714;2023-02-15T02:53:05;101985.69;;;2.72;93.35
43071;BME280;36278;47.952;21.714;2023-02-15T02:58:21;101989.97;;;2.76;93.00
43071;BME280;36278;47.952;21.714;2023-02-15T03:01:02;101988.22;;;2.78;92.55
43071;BME280;36278;47.952;21.714;2023-02-15T03:03:38;101996.97;;;2.77;92.34
43071;BME280;36278;47.952;21.714;2023-02-15T03:06:10;101990.84;;;2.78;91.81
43071;BME280;36278;47.952;21.714;2023-02-15T03:08:41;101989.22;;;2.71;92.67
43071;BME280;36278;47.952;21.714;2023-02-15T03:11:08;101982.28;;;2.67;93.39
43071;BME280;36278;47.952;21.714;2023-02-15T03:13:35;101987.41;;;2.73;93.35
43071;BME280;36278;47.952;21.714;2023-02-15T03:16:01;101990.00;;;2.75;92.64
43071;BME280;36278;47.952;21.714;2023-02-15T03:18:52;101994.34;;;2.77;92.49
43071;BME280;36278;47.952;21.714;2023-02-15T03:21:26;101993.25;;;2.89;91.32
43071;BME280;36278;47.952;21.714;2023-02-15T03:23:57;102004.59;;;2.90;91.69
43071;BME280;36278;47.952;21.714;2023-02-15T03:26:25;101998.66;;;2.80;91.59
43071;BME280;36278;47.952;21.714;2023-02-15T03:28:54;101995.31;;;2.72;92.17
43071;BME280;36278;47.952;21.714;2023-02-15T03:31:24;101990.25;;;2.61;92.98
43071;BME280;36278;47.952;21.714;2023-02-15T03:33:58;101985.13;;;2.55;92.66
43071;BME280;36278;47.952;21.714;2023-02-15T03:36:50;101994.69;;;2.56;92.91
43071;BME280;36278;47.952;21.714;2023-02-15T03:42:24;101999.84;;;2.61;92.63
43071;BME280;36278;47.952;21.714;2023-02-15T03:45:01;102004.19;;;2.60;93.34
43071;BME280;36278;47.952;21.714;2023-02-15T03:47:36;101999.94;;;2.55;93.18
43071;BME280;36278;47.952;21.714;2023-02-15T03:50:13;101999.97;;;2.51;93.03
43071;BME280;36278;47.952;21.714;2023-02-15T03:53:01;102005.34;;;2.42;94.08
43071;BME280;36278;47.952;21.714;2023-02-15T03:55:28;102001.91;;;2.40;93.90
43071;BME280;36278;47.952;21.714;2023-02-15T03:57:55;102015.84;;;2.41;94.06
43071;BME280;36278;47.952;21.714;2023-02-15T04:00:48;102020.19;;;2.42;94.32
43071;BME280;36278;47.952;21.714;2023-02-15T04:03:41;102010.59;;;2.41;93.75
43071;BME280;36278;47.952;21.714;2023-02-15T04:06:08;102015.00;;;2.39;93.38
43071;BME280;36278;47.952;21.714;2023-02-15T04:08:34;102016.78;;;2.35;94.01
43071;BME280;36278;47.952;21.714;2023-02-15T04:11:18;102014.31;;;2.24;94.66
43071;BME280;36278;47.952;21.714;2023-02-15T04:13:44;102014.34;;;2.23;94.53
43071;BME280;36278;47.952;21.714;2023-02-15T04:16:09;102010.91;;;2.19;94.39
43071;BME280;36278;47.952;21.714;2023-02-15T04:18:42;102011.72;;;2.24;94.26
43071;BME280;36278;47.952;21.714;2023-02-15T04:21:29;102005.66;;;2.19;94.36
43071;BME280;36278;47.952;21.714;2023-02-15T04:24:13;102016.88;;;2.28;94.79
43071;BME280;36278;47.952;21.714;2023-02-15T04:26:58;102014.31;;;2.26;94.23
43071;BME280;36278;47.952;21.714;2023-02-15T04:29:26;102016.06;;;2.25;94.36
43071;BME280;36278;47.952;21.714;2023-02-15T04:31:53;102011.78;;;2.18;94.23
43071;BME280;36278;47.952;21.714;2023-02-15T04:34:18;102016.19;;;2.16;94.75
43071;BME280;36278;47.952;21.714;2023-02-15T04:36:44;102018.00;;;2.10;94.70
43071;BME280;36278;47.952;21.714;2023-02-15T04:39:13;102020.66;;;2.08;95.20
43071;BME280;36278;47.952;21.714;2023-02-15T04:41:38;102020.72;;;2.04;94.40
43071;BME280;36278;47.952;21.714;2023-02-15T04:44:04;102022.50;;;2.00;94.83
43071;BME280;36278;47.952;21.714;2023-02-15T04:46:30;102023.38;;;2.01;94.70
43071;BME280;36278;47.952;21.714;2023-02-15T04:48:55;102022.56;;;1.94;94.55
43071;BME280;36278;47.952;21.714;2023-02-15T04:51:21;102023.50;;;1.90;95.00
43071;BME280;36278;47.952;21.714;2023-02-15T04:53:47;102027.84;;;1.91;95.32
43071;BME280;36278;47.952;21.714;2023-02-15T04:56:12;102028.75;;;1.88;95.03
43071;BME280;36278;47.952;21.714;2023-02-15T04:58:38;102017.53;;;1.82;94.41
43071;BME280;36278;47.952;21.714;2023-02-15T05:01:07;102024.56;;;1.75;95.42
43071;BME280;36278;47.952;21.714;2023-02-15T05:03:32;102020.31;;;1.66;96.85
43071;BME280;36278;47.952;21.714;2023-02-15T05:05:58;102025.47;;;1.69;95.73
43071;BME280;36278;47.952;21.714;2023-02-15T05:08:24;102021.22;;;1.64;95.75
43071;BME280;36278;47.952;21.714;2023-02-15T05:10:49;102024.59;;;1.74;95.97
43071;BME280;36278;47.952;21.714;2023-02-15T05:13:15;102039.34;;;1.76;95.02
43071;BME280;36278;47.952;21.714;2023-02-15T05:15:40;102034.94;;;1.81;94.50
43071;BME280;36278;47.952;21.714;2023-02-15T05:18:07;102038.44;;;1.79;95.24
43071;BME280;36278;47.952;21.714;2023-02-15T05:20:33;102048.06;;;1.75;95.26
43071;BME280;36278;47.952;21.714;2023-02-15T05:22:58;102035.16;;;1.64;95.71
43071;BME280;36278;47.952;21.714;2023-02-15T05:25:24;102036.91;;;1.64;95.56
43071;BME280;36278;47.952;21.714;2023-02-15T05:28:10;102037.78;;;1.63;96.61
43071;BME280;36278;47.952;21.714;2023-02-15T05:30:46;102039.59;;;1.56;94.83
43071;BME280;36278;47.952;21.714;2023-02-15T05:33:11;102041.34;;;1.53;96.09
43071;BME280;36278;47.952;21.714;2023-02-15T05:35:37;102035.25;;;1.55;96.60
43071;BME280;36278;47.952;21.714;2023-02-15T05:38:02;102055.19;;;1.61;96.29
43071;BME280;36278;47.952;21.714;2023-02-15T05:40:28;102045.66;;;1.58;96.60
43071;BME280;36278;47.952;21.714;2023-02-15T05:42:53;102046.53;;;1.57;95.74
43071;BME280;36278;47.952;21.714;2023-02-15T05:45:19;102051.75;;;1.59;96.41
43071;BME280;36278;47.952;21.714;2023-02-15T05:47:44;102047.38;;;1.59;96.67
43071;BME280;36278;47.952;21.714;2023-02-15T05:50:10;102056.03;;;1.64;97.25
43071;BME280;36278;47.952;21.714;2023-02-15T05:52:36;102060.34;;;1.68;95.93
43071;BME280;36278;47.952;21.714;2023-02-15T05:55:02;102062.00;;;1.76;95.98
43071;BME280;36278;47.952;21.714;2023-02-15T05:57:28;102059.34;;;1.77;96.16
43071;BME280;36278;47.952;21.714;2023-02-15T05:59:54;102061.94;;;1.82;95.33
43071;BME280;36278;47.952;21.714;2023-02-15T06:02:19;102057.50;;;1.87;95.77
43071;BME280;36278;47.952;21.714;2023-02-15T06:04:45;102064.50;;;1.85;94.49
43071;BME280;36278;47.952;21.714;2023-02-15T06:07:10;102068.91;;;1.81;94.54
43071;BME280;36278;47.952;21.714;2023-02-15T06:09:36;102076.69;;;1.86;95.32
43071;BME280;36278;47.952;21.714;2023-02-15T06:12:01;102074.06;;;1.89;94.56
43071;BME280;36278;47.952;21.714;2023-02-15T06:14:27;102079.28;;;1.86;94.60
43071;BME280;36278;47.952;21.714;2023-02-15T06:16:52;102080.19;;;1.85;94.74
43071;BME280;36278;47.952;21.714;2023-02-15T06:19:18;102078.47;;;1.82;94.57
43071;BME280;36278;47.952;21.714;2023-02-15T06:21:44;102091.50;;;1.84;94.10
43071;BME280;36278;47.952;21.714;2023-02-15T06:24:10;102086.28;;;1.84;95.16
43071;BME280;36278;47.952;21.714;2023-02-15T06:26:35;102085.47;;;1.79;95.10
43071;BME280;36278;47.952;21.714;2023-02-15T06:29:01;102088.91;;;1.84;95.94
43071;BME280;36278;47.952;21.714;2023-02-15T06:31:27;102096.69;;;1.90;96.00
43071;BME280;36278;47.952;21.714;2023-02-15T06:33:52;102094.88;;;1.95;94.74
43071;BME280;36278;47.952;21.714;2023-02-15T06:36:25;102100.84;;;2.06;94.77
43071;BME280;36278;47.952;21.714;2023-02-15T06:38:51;102099.97;;;2.07;94.25
43071;BME280;36278;47.952;21.714;2023-02-15T06:41:16;102097.25;;;2.15;94.60
43071;BME280;36278;47.952;21.714;2023-02-15T06:43:42;102093.63;;;2.25;93.33
43071;BME280;36278;47.952;21.714;2023-02-15T06:46:07;102096.06;;;2.40;92.96
43071;BME280;36278;47.952;21.714;2023-02-15T06:48:33;102087.22;;;2.49;91.83
43071;BME280;36278;47.952;21.714;2023-02-15T06:50:58;102095.66;;;2.68;91.28
43071;BME280;36278;47.952;21.714;2023-02-15T06:53:24;102091.22;;;2.73;90.26
43071;BME280;36278;47.952;21.714;2023-02-15T06:55:49;102088.59;;;2.74;91.44
43071;BME280;36278;47.952;21.714;2023-02-15T06:58:15;102080.59;;;2.84;90.58
43071;BME280;36278;47.952;21.714;2023-02-15T07:00:40;102089.19;;;2.92;89.99
43071;BME280;36278;47.952;21.714;2023-02-15T07:03:06;102083.94;;;2.95;89.71
43071;BME280;36278;47.952;21.714;2023-02-15T07:05:33;102089.69;;;3.15;89.05
43071;BME280;36278;47.952;21.714;2023-02-15T07:08:00;102094.91;;;3.15;88.60
43071;BME280;36278;47.952;21.714;2023-02-15T07:10:26;102094.97;;;3.12;89.02
43071;BME280;36278;47.952;21.714;2023-02-15T07:12:54;102091.41;;;3.16;89.10
43071;BME280;36278;47.952;21.714;2023-02-15T07:15:20;102093.16;;;3.16;88.96
43071;BME280;36278;47.952;21.714;2023-02-15T07:17:48;102096.50;;;3.27;89.11
43071;BME280;36278;47.952;21.714;2023-02-15T07:20:17;102084.84;;;3.42;88.38
43071;BME280;36278;47.952;21.714;2023-02-15T07:22:43;102097.91;;;3.45;86.86
43071;BME280;36278;47.952;21.714;2023-02-15T07:25:10;102086.63;;;3.43;87.40
43071;BME280;36278;47.952;21.714;2023-02-15T07:27:36;102084.72;;;3.49;86.61
43071;BME280;36278;47.952;21.714;2023-02-15T07:30:03;102084.59;;;3.58;87.05
43071;BME280;36278;47.952;21.714;2023-02-15T07:32:31;102073.97;;;3.64;85.61
43071;BME280;36278;47.952;21.714;2023-02-15T07:34:58;102086.75;;;3.83;86.03
43071;BME280;36278;47.952;21.714;2023-02-15T07:37:24;102081.97;;;4.02;84.69
43071;BME280;36278;47.952;21.714;2023-02-15T07:39:50;102081.88;;;4.06;83.77
43071;BME280;36278;47.952;21.714;2023-02-15T07:42:16;102078.06;;;4.21;83.03
43071;BME280;36278;47.952;21.714;2023-02-15T07:44:43;102081.44;;;4.28;82.56
43071;BME280;36278;47.952;21.714;2023-02-15T07:47:09;102087.34;;;4.37;82.05
43071;BME280;36278;47.952;21.714;2023-02-15T07:49:34;102077.53;;;4.45;82.48
43071;BME280;36278;47.952;21.714;2023-02-15T07:52:00;102072.34;;;4.44;81.96
43071;BME280;36278;47.952;21.714;2023-02-15T07:54:27;102083.59;;;4.49;81.55
43071;BME280;36278;47.952;21.714;2023-02-15T07:56:53;102072.16;;;4.52;80.90
43071;BME280;36278;47.952;21.714;2023-02-15T07:59:18;102075.34;;;4.66;80.74
43071;BME280;36278;47.952;21.714;2023-02-15T08:01:43;102089.16;;;4.74;80.68
43071;BME280;36278;47.952;21.714;2023-02-15T08:04:09;102077.81;;;4.73;79.64
43071;BME280;36278;47.952;21.714;2023-02-15T08:06:37;102072.31;;;4.83;80.47
43071;BME280;36278;47.952;21.714;2023-02-15T08:09:04;102077.44;;;4.87;79.42
43071;BME280;36278;47.952;21.714;2023-02-15T08:11:33;102040.88;;;4.81;79.71
43071;BME280;36278;47.952;21.714;2023-02-15T08:16:32;102070.94;;;5.03;77.61
43071;BME280;36278;47.952;21.714;2023-02-15T08:19:01;102055.16;;;5.05;78.62
43071;BME280;36278;47.952;21.714;2023-02-15T08:21:29;102058.59;;;5.07;78.72
43071;BME280;36278;47.952;21.714;2023-02-15T08:23:55;102058.31;;;5.18;78.09
43071;BME280;36278;47.952;21.714;2023-02-15T08:26:22;102059.78;;;5.29;77.00
43071;BME280;36278;47.952;21.714;2023-02-15T08:28:48;102051.81;;;5.32;76.77
43071;BME280;36278;47.952;21.714;2023-02-15T08:31:15;102059.44;;;5.42;76.90
43071;BME280;36278;47.952;21.714;2023-02-15T08:33:42;102051.84;;;5.31;76.90
43071;BME280;36278;47.952;21.714;2023-02-15T08:36:13;102055.19;;;5.38;76.81
43071;BME280;36278;47.952;21.714;2023-02-15T08:38:40;102048.13;;;5.40;76.70
43071;BME280;36278;47.952;21.714;2023-02-15T08:43:40;102048.31;;;5.65;75.01
43071;BME280;36278;47.952;21.714;2023-02-15T08:46:07;102050.03;;;5.66;75.36
43071;BME280;36278;47.952;21.714;2023-02-15T08:48:32;102050.53;;;5.80;74.58
43071;BME280;36278;47.952;21.714;2023-02-15T08:50:58;102040.59;;;5.89;74.35
43071;BME280;36278;47.952;21.714;2023-02-15T08:53:24;102046.81;;;5.87;74.22
43071;BME280;36278;47.952;21.714;2023-02-15T08:55:59;102046.16;;;6.10;73.87
43071;BME280;36278;47.952;21.714;2023-02-15T08:58:25;102054.53;;;6.24;72.17
43071;BME280;36278;47.952;21.714;2023-02-15T09:00:51;102059.59;;;6.30;71.85
43071;BME280;36278;47.952;21.714;2023-02-15T09:03:16;102055.16;;;6.32;70.72
43071;BME280;36278;47.952;21.714;2023-02-15T09:06:06;102055.44;;;6.51;69.36
43071;BME280;36278;47.952;21.714;2023-02-15T09:08:32;102056.03;;;6.61;68.70
43071;BME280;36278;47.952;21.714;2023-02-15T09:11:09;102048.91;;;6.64;69.43
43071;BME280;36278;47.952;21.714;2023-02-15T09:13:36;102054.03;;;6.69;70.17
43071;BME280;36278;47.952;21.714;2023-02-15T09:16:04;102050.19;;;6.79;68.85
43071;BME280;36278;47.952;21.714;2023-02-15T09:18:35;102042.09;;;6.85;69.03
43071;BME280;36278;47.952;21.714;2023-02-15T09:33:39;102062.97;;;7.18;67.50
43071;BME280;36278;47.952;21.714;2023-02-15T09:36:23;102052.31;;;7.21;67.87
43071;BME280;36278;47.952;21.714;2023-02-15T09:38:55;102053.97;;;7.23;67.66
43071;BME280;36278;47.952;21.714;2023-02-15T09:42:02;102049.16;;;7.61;66.07
43071;BME280;36278;47.952;21.714;2023-02-15T09:50:06;102041.59;;;7.75;63.02
43071;BME280;36278;47.952;21.714;2023-02-15T09:55:45;102029.38;;;7.96;62.80
43071;BME280;36278;47.952;21.714;2023-02-15T10:07:32;102007.88;;;8.52;61.79
43071;BME280;36278;47.952;21.714;2023-02-15T10:10:43;102005.25;;;8.52;62.17
43071;BME280;36278;47.952;21.714;2023-02-15T10:16:35;101997.06;;;8.36;61.56
43071;BME280;36278;47.952;21.714;2023-02-15T10:23:08;101993.34;;;8.19;62.79
43071;BME280;36278;47.952;21.714;2023-02-15T10:28:11;101982.31;;;7.85;63.93
43071;BME280;36278;47.952;21.714;2023-02-15T10:30:51;101983.06;;;7.66;64.39
43071;BME280;36278;47.952;21.714;2023-02-15T10:33:30;101990.09;;;7.88;64.54
43071;BME280;36278;47.952;21.714;2023-02-15T11:06:09;101964.78;;;8.28;61.75
43071;BME280;36278;47.952;21.714;2023-02-15T11:08:50;101956.94;;;8.27;62.37
43071;BME280;36278;47.952;21.714;2023-02-15T11:11:41;101961.91;;;8.34;62.49
43071;BME280;36278;47.952;21.714;2023-02-15T11:14:34;101956.91;;;8.50;61.70
43071;BME280;36278;47.952;21.714;2023-02-15T11:17:17;101951.84;;;8.66;60.71
43071;BME280;36278;47.952;21.714;2023-02-15T11:19:58;101937.72;;;8.67;60.87
43071;BME280;36278;47.952;21.714;2023-02-15T11:22:30;101952.66;;;8.46;61.98
43071;BME280;36278;47.952;21.714;2023-02-15T11:24:58;101955.25;;;8.90;60.74
43071;BME280;36278;47.952;21.714;2023-02-15T11:27:31;101948.56;;;8.81;60.85
43071;BME280;36278;47.952;21.714;2023-02-15T11:30:03;101943.81;;;8.89;60.34
43071;BME280;36278;47.952;21.714;2023-02-15T11:32:39;101952.28;;;8.97;60.75
43071;BME280;36278;47.952;21.714;2023-02-15T11:37:54;101943.81;;;9.10;60.52
43071;BME280;36278;47.952;21.714;2023-02-15T11:42:58;101947.34;;;9.68;58.44
43071;BME280;36278;47.952;21.714;2023-02-15T11:45:27;101936.06;;;9.65;59.28
43071;BME280;36278;47.952;21.714;2023-02-15T11:47:55;101937.94;;;9.81;58.10
43071;BME280;36278;47.952;21.714;2023-02-15T11:50:30;101937.63;;;9.69;58.46
43071;BME280;36278;47.952;21.714;2023-02-15T11:53:04;101936.97;;;10.01;58.03
43071;BME280;36278;47.952;21.714;2023-02-15T11:55:32;101930.91;;;10.18;56.77
43071;BME280;36278;47.952;21.714;2023-02-15T12:00:46;101928.72;;;10.62;55.80
43071;BME280;36278;47.952;21.714;2023-02-15T12:03:20;101915.31;;;10.48;56.61
43071;BME280;36278;47.952;21.714;2023-02-15T12:05:53;101919.25;;;10.03;57.92
43071;BME280;36278;47.952;21.714;2023-02-15T12:08:21;101920.09;;;9.85;58.39
43071;BME280;36278;47.952;21.714;2023-02-15T12:11:00;101925.91;;;9.74;58.87
43071;BME280;36278;47.952;21.714;2023-02-15T12:13:29;101916.38;;;10.27;57.42
43071;BME280;36278;47.952;21.714;2023-02-15T12:15:57;101916.63;;;10.74;56.75
43071;BME280;36278;47.952;21.714;2023-02-15T12:18:37;101909.22;;;10.46;57.11
43071;BME280;36278;47.952;21.714;2023-02-15T12:21:12;101902.84;;;10.50;56.43
43071;BME280;36278;47.952;21.714;2023-02-15T12:23:50;101910.44;;;10.75;56.02
43071;BME280;36278;47.952;21.714;2023-02-15T12:26:27;101902.13;;;10.99;55.76
43071;BME280;36278;47.952;21.714;2023-02-15T12:28:55;101911.97;;;10.79;55.89
43071;BME280;36278;47.952;21.714;2023-02-15T12:31:32;101887.50;;;11.25;54.26
43071;BME280;36278;47.952;21.714;2023-02-15T12:34:01;101883.28;;;11.69;54.02
43071;BME280;36278;47.952;21.714;2023-02-15T12:36:32;101891.84;;;11.59;53.17
43071;BME280;36278;47.952;21.714;2023-02-15T12:39:18;101885.25;;;12.13;51.99
43071;BME280;36278;47.952;21.714;2023-02-15T12:44:17;101881.69;;;12.14;52.28
43071;BME280;36278;47.952;21.714;2023-02-15T12:47:05;101880.69;;;11.36;53.65
43071;BME280;36278;47.952;21.714;2023-02-15T12:49:35;101877.56;;;11.77;53.40
43071;BME280;36278;47.952;21.714;2023-02-15T12:52:22;101861.53;;;11.14;55.35
43071;BME280;36278;47.952;21.714;2023-02-15T12:54:48;101879.88;;;11.18;54.57
43071;BME280;36278;47.952;21.714;2023-02-15T13:02:41;101874.19;;;11.42;54.85
43071;BME280;36278;47.952;21.714;2023-02-15T13:05:31;101869.25;;;12.45;52.44
43071;BME280;36278;47.952;21.714;2023-02-15T13:08:08;101863.34;;;12.70;51.22
43071;BME280;36278;47.952;21.714;2023-02-15T13:10:42;101860.53;;;13.01;50.47
43071;BME280;36278;47.952;21.714;2023-02-15T13:13:24;101850.75;;;13.02;50.03
43071;BME280;36278;47.952;21.714;2023-02-15T13:15:53;101846.22;;;12.59;50.21
43071;BME280;36278;47.952;21.714;2023-02-15T13:18:30;101856.16;;;11.96;51.56
43071;BME280;36278;47.952;21.714;2023-02-15T13:20:56;101838.66;;;11.76;52.27
43071;BME280;36278;47.952;21.714;2023-02-15T13:23:30;101854.13;;;11.85;53.16
43071;BME280;36278;47.952;21.714;2023-02-15T13:25:58;101841.63;;;12.33;51.90
43071;BME280;36278;47.952;21.714;2023-02-15T13:28:36;101836.88;;;12.08;52.63
43071;BME280;36278;47.952;21.714;2023-02-15T13:31:12;101831.91;;;12.02;53.03
43071;BME280;36278;47.952;21.714;2023-02-15T13:33:42;101844.16;;;12.34;52.13
43071;BME280;36278;47.952;21.714;2023-02-15T13:39:16;101830.50;;;12.71;50.92
43071;BME280;36278;47.952;21.714;2023-02-15T13:42:14;101832.00;;;11.69;53.12
43071;BME280;36278;47.952;21.714;2023-02-15T13:47:54;101833.72;;;12.01;52.42
43071;BME280;36278;47.952;21.714;2023-02-15T13:56:12;101835.03;;;12.69;51.04
43071;BME280;36278;47.952;21.714;2023-02-15T14:01:34;101829.03;;;12.51;50.58
43071;BME280;36278;47.952;21.714;2023-02-15T14:06:58;101829.78;;;11.93;51.91
43071;BME280;36278;47.952;21.714;2023-02-15T14:18:07;101826.16;;;11.62;53.61
43071;BME280;36278;47.952;21.714;2023-02-15T14:26:49;101818.09;;;12.41;51.75
43071;BME280;36278;47.952;21.714;2023-02-15T14:29:46;101820.59;;;12.58;50.50
43071;BME280;36278;47.952;21.714;2023-02-15T14:34:55;101818.41;;;11.91;52.28
43071;BME280;36278;47.952;21.714;2023-02-15T14:37:24;101819.44;;;12.18;52.19
43071;BME280;36278;47.952;21.714;2023-02-15T14:40:02;101814.69;;;11.93;52.10
43071;BME280;36278;47.952;21.714;2023-02-15T14:42:57;101825.16;;;11.81;53.10
43071;BME280;36278;47.952;21.714;2023-02-15T14:45:35;101817.59;;;12.34;52.01
43071;BME280;36278;47.952;21.714;2023-02-15T14:50:39;101817.81;;;12.46;51.29
43071;BME280;36278;47.952;21.714;2023-02-15T14:56:20;101812.34;;;13.63;49.10
43071;BME280;36278;47.952;21.714;2023-02-15T15:01:40;101817.69;;;13.75;48.76
43071;BME280;36278;47.952;21.714;2023-02-15T15:04:10;101822.25;;;14.27;47.92
43071;BME280;36278;47.952;21.714;2023-02-15T15:06:41;101813.25;;;14.55;47.18
43071;BME280;36278;47.952;21.714;2023-02-15T15:09:14;101823.22;;;14.39;46.81
43071;BME280;36278;47.952;21.714;2023-02-15T15:11:52;101815.34;;;14.38;47.20
43071;BME280;36278;47.952;21.714;2023-02-15T15:14:39;101822.50;;;14.37;47.27
43071;BME280;36278;47.952;21.714;2023-02-15T15:17:06;101822.50;;;13.56;48.14
43071;BME280;36278;47.952;21.714;2023-02-15T15:22:20;101823.50;;;12.40;51.14
43071;BME280;36278;47.952;21.714;2023-02-15T15:27:43;101829.44;;;10.70;56.10
43071;BME280;36278;47.952;21.714;2023-02-15T15:47:31;101825.63;;;8.32;64.92
43071;BME280;36278;47.952;21.714;2023-02-15T15:49:57;101822.00;;;8.12;65.47
43071;BME280;36278;47.952;21.714;2023-02-15T15:52:24;101831.31;;;8.01;66.33
43071;BME280;36278;47.952;21.714;2023-02-15T15:55:15;101825.91;;;7.82;67.10
43071;BME280;36278;47.952;21.714;2023-02-15T15:57:44;101795.56;;;7.48;68.53
43071;BME280;36278;47.952;21.714;2023-02-15T16:00:34;101825.28;;;7.53;69.23
43071;BME280;36278;47.952;21.714;2023-02-15T16:03:01;101824.16;;;7.37;70.02